Time;durP1;ratioP1;P1;durP2;ratioP2;P2;SDS_P1;SDS_P2;PMS_P1;PMS_P2;Temp;Humidity;BMP_temperature;BMP_pressure;BME280_temperature;BME280_humidity;BME280_pressure;Samples;Min_cycle;Max_cycle;Signal;HPM_P1;HPM_P2
2022/07/27 00:00:42;;;;;;;6.28;3.30;;;;;;;21.23;100.00;99034.77;1701662;84;21161;-64
2022/07/27 00:03:09;;;;;;;4.78;3.10;;;;;;;21.20;100.00;99032.78;1700014;84;20907;-64
2022/07/27 00:05:38;;;;;;;5.20;3.30;;;;;;;21.16;100.00;99024.39;1702188;84;20981;-65
2022/07/27 00:08:05;;;;;;;4.35;3.05;;;;;;;21.08;100.00;99026.42;1702307;84;21016;-65
2022/07/27 00:10:33;;;;;;;5.75;2.67;;;;;;;21.06;100.00;99026.62;1696124;84;20940;-64
2022/07/27 00:13:00;;;;;;;6.47;2.72;;;;;;;21.01;100.00;99041.84;1701689;84;21076;-65
2022/07/27 00:15:28;;;;;;;5.17;2.75;;;;;;;20.98;100.00;99035.65;1692924;84;20925;-64
2022/07/27 00:17:57;;;;;;;5.10;3.17;;;;;;;20.96;100.00;99033.84;1704701;84;21019;-64
2022/07/27 00:20:27;;;;;;;8.25;2.77;;;;;;;20.99;100.00;99032.44;1670659;85;21112;-65
2022/07/27 00:22:54;;;;;;;6.05;2.77;;;;;;;21.01;100.00;99034.25;1670846;85;21004;-65
2022/07/27 00:25:21;;;;;;;2.92;2.22;;;;;;;21.04;100.00;99036.23;1670572;85;21509;-65
2022/07/27 00:27:47;;;;;;;3.00;2.67;;;;;;;21.02;100.00;99035.83;1667415;85;21119;-65
2022/07/27 00:30:14;;;;;;;3.33;2.95;;;;;;;20.99;100.00;99034.44;1694694;84;21000;-65
2022/07/27 00:32:42;;;;;;;4.72;3.00;;;;;;;21.08;100.00;99033.42;1696430;84;21095;-65
2022/07/27 00:35:09;;;;;;;5.55;2.40;;;;;;;21.15;100.00;99028.41;1693089;84;20921;-64
2022/07/27 00:37:35;;;;;;;6.08;2.47;;;;;;;20.95;100.00;99028.84;1696128;84;21309;-64
2022/07/27 00:40:03;;;;;;;5.55;2.98;;;;;;;21.02;100.00;99032.22;1696210;84;20999;-65
2022/07/27 00:42:30;;;;;;;4.55;3.22;;;;;;;20.84;100.00;99037.25;1692081;84;20969;-64
2022/07/27 00:44:56;;;;;;;4.72;2.75;;;;;;;20.80;100.00;99039.23;1701541;84;21049;-64
2022/07/27 00:47:23;;;;;;;3.58;2.80;;;;;;;20.79;100.00;99034.85;1696687;84;21091;-65
2022/07/27 00:49:50;;;;;;;4.50;2.83;;;;;;;20.80;100.00;99034.45;1684769;84;21063;-64
2022/07/27 00:52:17;;;;;;;4.42;2.83;;;;;;;20.80;100.00;99030.84;1695095;84;21056;-64
2022/07/27 00:54:43;;;;;;;7.65;3.08;;;;;;;20.75;100.00;99032.64;1695740;84;21566;-64
2022/07/27 00:57:10;;;;;;;4.40;2.70;;;;;;;20.72;100.00;99032.05;1696215;84;20962;-64
2022/07/27 00:59:39;;;;;;;6.33;2.60;;;;;;;20.74;100.00;99033.86;1697488;84;20956;-64
2022/07/27 01:02:05;;;;;;;6.22;2.72;;;;;;;20.77;100.00;99032.45;1702219;84;21526;-64
2022/07/27 01:04:32;;;;;;;6.37;2.60;;;;;;;20.91;100.00;99028.81;1696098;84;21488;-64
2022/07/27 01:06:59;;;;;;;4.53;2.40;;;;;;;21.00;100.00;99036.05;1695989;84;21120;-64
2022/07/27 01:12:18;;;;;;;7.30;2.92;;;;;;;20.98;100.00;99035.65;1693067;84;21025;-64
2022/07/27 01:14:45;;;;;;;4.00;3.00;;;;;;;20.88;100.00;99034.44;1703939;84;21559;-64
2022/07/27 01:17:11;;;;;;;2.58;2.12;;;;;;;20.72;100.00;99032.05;1696686;83;21003;-64
2022/07/27 01:19:38;;;;;;;3.77;2.50;;;;;;;20.64;100.00;99034.85;1699524;84;20961;-64
2022/07/27 01:22:05;;;;;;;5.33;2.90;;;;;;;20.58;100.00;99027.27;1700003;84;21031;-64
2022/07/27 01:24:35;;;;;;;6.08;3.08;;;;;;;20.77;100.00;99033.86;1695102;84;21092;-65
2022/07/27 01:27:03;;;;;;;6.28;2.95;;;;;;;20.80;100.00;99026.64;1674151;85;21061;-65
2022/07/27 01:29:30;;;;;;;4.47;3.22;;;;;;;20.69;100.00;99029.47;1695985;84;21620;-65
2022/07/27 01:31:57;;;;;;;5.33;2.77;;;;;;;20.67;100.00;99035.47;1678312;85;21069;-65
2022/07/27 01:34:24;;;;;;;4.40;2.65;;;;;;;20.66;100.00;99028.85;1723958;83;21069;-66
2022/07/27 01:36:51;;;;;;;4.12;2.77;;;;;;;20.72;100.00;99027.86;1696078;84;21051;-66
2022/07/27 01:39:17;;;;;;;3.30;2.55;;;;;;;20.64;100.00;99029.88;1678318;85;21497;-65
2022/07/27 01:41:45;;;;;;;3.62;2.67;;;;;;;20.62;100.00;99026.08;1724301;83;21453;-64
2022/07/27 01:44:11;;;;;;;4.92;2.77;;;;;;;20.47;100.00;99032.27;1721065;83;21087;-64
2022/07/27 01:46:38;;;;;;;6.37;3.12;;;;;;;20.60;100.00;99029.88;1721058;83;20972;-64
2022/07/27 01:49:05;;;;;;;5.15;2.85;;;;;;;20.61;100.00;99030.06;1725002;83;21048;-63
2022/07/27 01:51:32;;;;;;;5.42;2.90;;;;;;;20.59;100.00;99029.66;1720844;83;21165;-64
2022/07/27 01:53:58;;;;;;;3.17;2.67;;;;;;;20.57;100.00;99025.09;1724528;83;21004;-64
2022/07/27 01:56:25;;;;;;;4.80;2.87;;;;;;;20.55;100.00;99027.48;1697667;84;20940;-64
2022/07/27 01:58:54;;;;;;;5.58;2.67;;;;;;;20.57;100.00;99027.88;1674832;85;21024;-64
2022/07/27 02:01:20;;;;;;;4.33;3.15;;;;;;;20.61;100.00;99024.47;1699784;84;21051;-64
2022/07/27 02:03:47;;;;;;;12.28;2.72;;;;;;;20.63;100.00;99023.47;1699353;84;21559;-64
2022/07/27 02:06:13;;;;;;;3.58;2.67;;;;;;;20.58;100.00;99015.48;1673674;85;21521;-64
2022/07/27 02:08:40;;;;;;;3.67;2.90;;;;;;;20.54;100.00;99017.47;1724907;83;21012;-65
2022/07/27 02:13:52;;;;;;;7.55;3.27;;;;;;;20.55;100.00;99020.48;1724132;83;21512;-65
2022/07/27 02:16:19;;;;;;;3.02;2.72;;;;;;;20.57;100.00;99016.69;1721240;83;21185;-65
2022/07/27 02:18:45;;;;;;;3.37;2.70;;;;;;;20.55;100.00;99015.70;1716124;83;20961;-65
2022/07/27 02:21:12;;;;;;;5.83;2.95;;;;;;;20.52;100.00;99024.09;1701753;84;21025;-65
2022/07/27 02:23:39;;;;;;;5.00;2.30;;;;;;;20.52;100.00;99030.46;1716242;83;20981;-65
2022/07/27 02:26:06;;;;;;;9.98;2.72;;;;;;;20.53;100.00;99029.88;1701952;84;20942;-65
2022/07/27 02:28:34;;;;;;;15.90;3.22;;;;;;;20.50;100.00;99028.69;1712210;83;21307;-65
2022/07/27 02:31:01;;;;;;;5.80;3.30;;;;;;;20.38;100.00;99024.88;1715882;83;21028;-65
2022/07/27 02:33:27;;;;;;;5.12;2.80;;;;;;;20.27;100.00;99024.87;1702974;83;20977;-65
2022/07/27 02:35:53;;;;;;;4.58;2.92;;;;;;;20.22;100.00;99028.05;1699487;84;21029;-65
2022/07/27 02:38:20;;;;;;;3.15;2.45;;;;;;;20.23;100.00;99028.27;1702333;84;21009;-65
2022/07/27 02:40:46;;;;;;;3.85;2.35;;;;;;;20.21;100.00;99033.45;1702618;84;21636;-65
2022/07/27 02:43:13;;;;;;;5.97;3.22;;;;;;;20.22;100.00;99030.86;1701848;84;21643;-65
2022/07/27 02:45:39;;;;;;;4.37;2.55;;;;;;;20.29;100.00;99036.45;1702228;84;20978;-65
2022/07/27 02:48:05;;;;;;;5.92;2.70;;;;;;;20.38;100.00;99039.67;1702053;84;21002;-66
2022/07/27 02:50:32;;;;;;;6.08;3.15;;;;;;;20.48;100.00;99044.26;1703011;84;21072;-65
2022/07/27 02:52:58;;;;;;;4.20;3.08;;;;;;;20.54;100.00;99039.85;1702198;84;21111;-66
2022/07/27 02:55:25;;;;;;;3.52;2.85;;;;;;;20.52;100.00;99035.28;1700298;84;21058;-65
2022/07/27 02:57:51;;;;;;;3.27;2.62;;;;;;;20.49;100.00;99038.27;1702823;84;21112;-65
2022/07/27 03:00:19;;;;;;;7.40;2.92;;;;;;;20.45;100.00;99040.28;1702139;84;21075;-66
2022/07/27 03:02:49;;;;;;;4.97;2.35;;;;;;;20.43;100.00;99048.27;1695729;84;21412;-64
2022/07/27 03:05:16;;;;;;;4.87;3.05;;;;;;;20.38;100.00;99050.86;1658093;86;21209;-65
2022/07/27 03:07:45;;;;;;;6.33;2.90;;;;;;;20.35;100.00;99047.44;1688639;84;20936;-65
2022/07/27 03:10:11;;;;;;;4.95;3.17;;;;;;;20.38;100.00;99049.47;1669898;85;21029;-65
2022/07/27 03:12:39;;;;;;;6.30;2.87;;;;;;;20.39;100.00;99046.86;1712538;83;21017;-65
2022/07/27 03:15:08;;;;;;;5.47;2.72;;;;;;;20.45;100.00;99044.47;1665314;84;21044;-65
2022/07/27 03:17:35;;;;;;;4.75;2.62;;;;;;;20.60;100.00;99050.86;1654045;85;21712;-64
2022/07/27 03:20:02;;;;;;;3.72;2.65;;;;;;;20.65;100.00;99053.85;1702126;84;20980;-65
2022/07/27 03:22:31;;;;;;;4.85;3.20;;;;;;;20.57;100.00;99053.06;1702368;84;21042;-66
2022/07/27 03:24:58;;;;;;;4.37;3.08;;;;;;;20.65;100.00;99051.86;1697657;84;21002;-66
2022/07/27 03:27:24;;;;;;;5.65;2.62;;;;;;;20.75;100.00;99048.03;1702322;83;21045;-65
2022/07/27 03:29:52;;;;;;;5.53;3.17;;;;;;;20.80;100.00;99047.63;1696344;84;21162;-65
2022/07/27 03:32:18;;;;;;;4.67;2.40;;;;;;;20.84;100.00;99047.63;1692621;84;20969;-65
2022/07/27 03:34:45;;;;;;;7.30;2.87;;;;;;;20.88;100.00;99052.02;1702969;82;21056;-65
2022/07/27 03:37:11;;;;;;;7.00;2.80;;;;;;;20.92;100.00;99050.02;1643293;87;21047;-65
2022/07/27 03:39:38;;;;;;;5.42;3.30;;;;;;;20.98;100.00;99056.65;1700932;84;20990;-64
2022/07/27 03:42:05;;;;;;;5.20;3.12;;;;;;;21.03;100.00;99052.03;1703919;82;21836;-65
2022/07/27 03:44:32;;;;;;;5.45;3.80;;;;;;;21.12;100.00;99051.62;1702980;82;20940;-65
2022/07/27 03:46:58;;;;;;;10.20;3.40;;;;;;;21.18;100.00;99046.39;1697734;83;21056;-65
2022/07/27 03:49:25;;;;;;;5.10;3.55;;;;;;;21.22;100.00;99043.77;1696331;84;20998;-65
2022/07/27 03:51:52;;;;;;;4.80;2.90;;;;;;;21.27;100.00;99040.55;1700089;83;21080;-65
2022/07/27 03:54:18;;;;;;;5.50;3.17;;;;;;;21.38;100.00;99045.32;1695822;84;21173;-64
2022/07/27 03:56:45;;;;;;;5.30;3.15;;;;;;;21.48;100.00;99048.69;1702042;84;21515;-66
2022/07/27 03:59:11;;;;;;;7.97;3.12;;;;;;;21.59;100.00;99050.64;1670479;85;21073;-65
2022/07/27 04:01:38;;;;;;;2.85;2.58;;;;;;;21.53;100.00;99046.06;1669600;84;21097;-65
2022/07/27 04:04:05;;;;;;;8.40;3.17;;;;;;;21.58;100.00;99047.04;1696273;84;21009;-65
2022/07/27 04:06:32;;;;;;;5.87;2.80;;;;;;;21.74;100.00;99045.17;1688880;84;21170;-65
2022/07/27 04:08:58;;;;;;;5.12;2.85;;;;;;;21.82;100.00;99044.55;1696434;84;20981;-64
2022/07/27 04:11:25;;;;;;;4.70;2.72;;;;;;;21.86;100.00;99046.73;1695173;84;21079;-65
2022/07/27 04:13:51;;;;;;;5.12;2.77;;;;;;;21.95;100.00;99043.48;1696156;84;21074;-65
2022/07/27 04:16:19;;;;;;;3.20;2.10;;;;;;;22.02;100.00;99042.65;1693126;84;21071;-65
2022/07/27 04:18:46;;;;;;;5.40;2.58;;;;;;;22.03;100.00;99037.22;1716981;83;21687;-65
2022/07/27 04:21:14;;;;;;;3.15;2.37;;;;;;;22.12;100.00;99045.18;1725584;81;21009;-65
2022/07/27 04:23:41;;;;;;;4.03;2.37;;;;;;;22.19;100.00;99044.33;1726282;83;21040;-65
2022/07/27 04:26:07;;;;;;;2.98;2.00;;;;;;;22.34;100.00;99042.22;1724324;83;21035;-65
2022/07/27 04:28:34;;;;;;;3.22;2.20;;;;;;;22.43;100.00;99041.16;1726140;83;21059;-65
2022/07/27 04:31:00;;;;;;;3.40;2.47;;;;;;;22.55;100.00;99045.47;1725197;83;21132;-65
2022/07/27 04:33:26;;;;;;;3.60;2.47;;;;;;;22.67;100.00;99039.95;1725712;83;21021;-65
2022/07/27 04:35:53;;;;;;;4.45;2.20;;;;;;;22.73;100.00;99045.92;1730218;81;21055;-65
2022/07/27 04:38:19;;;;;;;4.10;2.45;;;;;;;22.80;100.00;99046.46;1727074;82;21063;-65
2022/07/27 04:40:46;;;;;;;3.85;2.65;;;;;;;23.02;100.00;99051.26;1724955;83;21020;-65
2022/07/27 04:43:13;;;;;;;3.15;2.12;;;;;;;23.10;100.00;99051.97;1702116;84;21274;-65
2022/07/27 04:45:40;;;;;;;2.62;2.30;;;;;;;23.10;100.00;99046.35;1702737;82;21068;-65
2022/07/27 04:48:08;;;;;;;3.77;2.35;;;;;;;23.25;100.00;99054.03;1719010;82;20996;-66
2022/07/27 04:50:41;;;;;;;2.50;2.30;;;;;;;23.42;100.00;99058.48;1663570;85;21061;-65
2022/07/27 04:53:09;;;;;;;3.15;2.27;;;;;;;23.51;100.00;99057.98;1668996;84;21059;-65
2022/07/27 04:55:37;;;;;;;3.00;2.35;;;;;;;23.61;100.00;99050.63;1663091;85;21602;-66
2022/07/27 04:58:03;;;;;;;3.50;2.10;;;;;;;23.70;100.00;99047.48;1713971;82;21033;-65
2022/07/27 05:00:30;;;;;;;6.05;2.83;;;;;;;23.78;100.00;99042.55;1709046;82;21508;-66
2022/07/27 05:02:57;;;;;;;3.27;2.80;;;;;;;23.88;100.00;99043.64;1715754;82;21494;-65
2022/07/27 05:05:23;;;;;;;3.92;2.30;;;;;;;23.97;100.00;99044.49;1700675;84;22088;-66
2022/07/27 05:07:51;;;;;;;5.30;2.47;;;;;;;23.96;100.00;99042.91;1713438;82;21556;-65
2022/07/27 05:10:18;;;;;;;5.03;2.67;;;;;;;24.15;100.00;99051.88;1718767;82;21040;-65
2022/07/27 05:12:44;;;;;;;4.83;2.60;;;;;;;24.22;100.00;99051.81;1719610;82;21004;-65
2022/07/27 05:15:11;;;;;;;4.72;2.90;;;;;;;24.30;100.00;99046.86;1703968;82;21012;-66
2022/07/27 05:17:38;;;;;;;3.80;2.80;;;;;;;24.30;100.00;99056.70;1714878;82;21445;-65
2022/07/27 05:20:07;;;;;;;6.33;2.70;;;;;;;24.40;100.00;99052.12;1718201;82;21224;-66
2022/07/27 05:22:33;;;;;;;3.22;2.10;;;;;;;24.56;100.00;99057.11;1724442;81;21534;-66
2022/07/27 05:25:00;;;;;;;3.92;2.33;;;;;;;24.67;100.00;99058.31;1721999;82;21082;-66
2022/07/27 05:27:26;;;;;;;5.42;2.10;;;;;;;24.62;100.00;99054.58;1723937;82;21032;-66
2022/07/27 05:29:53;;;;;;;3.75;2.60;;;;;;;24.71;100.00;99048.39;1724103;81;21131;-65
2022/07/27 05:32:19;;;;;;;6.22;2.50;;;;;;;24.77;100.00;99052.33;1724821;82;21151;-66
2022/07/27 05:34:46;;;;;;;3.17;1.50;;;;;;;24.85;100.00;99060.83;1721115;82;20960;-66
2022/07/27 05:37:12;;;;;;;3.50;2.33;;;;;;;24.96;100.00;99057.83;1722267;81;21082;-65
2022/07/27 05:39:41;;;;;;;2.25;1.90;;;;;;;25.03;100.00;99061.94;1722619;83;21524;-66
2022/07/27 05:42:09;;;;;;;3.92;1.90;;;;;;;25.12;100.00;99057.75;1714285;82;21031;-66
2022/07/27 05:44:35;;;;;;;5.37;1.80;;;;;;;25.20;100.00;99060.61;1723918;83;21151;-66
2022/07/27 05:47:02;;;;;;;5.05;1.90;;;;;;;25.40;100.00;99059.20;1701161;83;21115;-65
2022/07/27 05:49:28;;;;;;;3.60;2.00;;;;;;;25.49;100.00;99057.22;1703813;83;21047;-65
2022/07/27 05:51:55;;;;;;;3.05;2.05;;;;;;;25.50;100.00;99064.44;1700299;83;21662;-65
2022/07/27 05:54:21;;;;;;;2.45;1.52;;;;;;;25.66;100.00;99069.99;1704705;83;21065;-65
2022/07/27 05:56:48;;;;;;;3.00;1.75;;;;;;;25.74;100.00;99077.06;1682163;84;21823;-65
2022/07/27 05:59:15;;;;;;;3.83;1.82;;;;;;;25.84;100.00;99075.88;1699422;84;20995;-65
2022/07/27 06:01:41;;;;;;;2.42;1.75;;;;;;;25.94;100.00;99079.69;1704360;83;21071;-64
2022/07/27 06:04:10;;;;;;;3.10;1.95;;;;;;;26.01;100.00;99071.87;1679486;84;21090;-65
2022/07/27 06:09:23;;;;;;;1.90;1.70;;;;;;;26.12;100.00;99075.03;1703393;83;21128;-66
2022/07/27 06:11:49;;;;;;;2.35;1.72;;;;;;;26.18;100.00;99076.13;1695599;83;21126;-65
2022/07/27 06:14:15;;;;;;;2.47;1.82;;;;;;;26.23;100.00;99071.98;1677852;85;21619;-65
2022/07/27 06:16:44;;;;;;;3.35;2.30;;;;;;;26.29;100.00;99070.84;1723319;83;21016;-65
2022/07/27 06:19:10;;;;;;;4.30;1.62;;;;;;;26.36;100.00;99067.86;1724503;81;21417;-65
2022/07/27 06:21:37;;;;;;;2.20;1.52;;;;;;;26.41;100.00;99079.27;1697961;82;21783;-65
2022/07/27 06:24:04;;;;;;;2.00;1.60;;;;;;;26.54;100.00;99077.94;1699219;84;21008;-64
2022/07/27 06:26:30;;;;;;;2.20;1.70;;;;;;;26.55;100.00;99072.45;1678266;84;21089;-65
2022/07/27 06:28:59;;;;;;;6.22;2.17;;;;;;;26.67;100.00;99075.19;1680042;84;21027;-65
2022/07/27 06:31:26;;;;;;;4.62;1.87;;;;;;;26.70;100.00;99072.91;1728265;81;21016;-65
2022/07/27 06:33:53;;;;;;;1.75;1.65;;;;;;;26.79;100.00;99069.44;1724692;81;21783;-65
2022/07/27 06:36:20;;;;;;;2.58;1.70;;;;;;;26.85;100.00;99077.56;1698487;83;20976;-65
2022/07/27 06:38:47;;;;;;;3.72;1.75;;;;;;;26.90;100.00;99076.23;1703724;83;21051;-65
2022/07/27 06:41:14;;;;;;;5.70;1.90;;;;;;;27.00;100.00;99075.77;1680408;84;21027;-64
2022/07/27 06:43:41;;;;;;;5.17;1.80;;;;;;;27.07;100.00;99076.38;1726961;81;21990;-64
2022/07/27 06:46:11;;;;;;;2.17;1.85;;;;;;;27.12;100.00;99076.48;1724062;81;22155;-64
2022/07/27 06:51:18;;;;;;;5.58;1.90;;;;;;;27.33;100.00;99072.25;1836835;76;22267;-64
2022/07/27 06:53:45;;;;;;;3.27;1.82;;;;;;;27.38;100.00;99080.02;1810966;79;20928;-65
2022/07/27 06:56:11;;;;;;;2.08;1.70;;;;;;;27.48;100.00;99073.27;1808848;79;21784;-66
2022/07/27 06:58:38;;;;;;;4.87;1.72;;;;;;;27.59;100.00;99069.50;1806806;79;20918;-66
2022/07/27 07:01:04;;;;;;;3.55;2.10;;;;;;;27.64;100.00;99073.00;1809456;79;20943;-65
2022/07/27 07:03:31;;;;;;;2.15;1.77;;;;;;;27.68;100.00;99070.27;1807467;79;21016;-65
2022/07/27 07:05:57;;;;;;;3.55;1.80;;;;;;;27.73;100.00;99068.13;1814366;79;20874;-65
2022/07/27 07:08:24;;;;;;;3.08;2.10;;;;;;;27.81;99.23;99077.98;1804589;79;21099;-65
2022/07/27 07:10:51;;;;;;;2.30;2.02;;;;;;;27.82;96.78;99074.70;1803931;79;20932;-65
2022/07/27 07:13:18;;;;;;;2.02;1.75;;;;;;;27.93;97.20;99077.22;1780816;80;20894;-67
2022/07/27 07:15:44;;;;;;;4.65;2.62;;;;;;;28.00;97.53;99071.16;1777445;80;21102;-65
2022/07/27 07:18:13;;;;;;;3.02;1.90;;;;;;;28.10;94.45;99073.51;1777569;80;21122;-64
2022/07/27 07:20:39;;;;;;;2.22;1.90;;;;;;;28.15;91.82;99075.12;1774238;80;21506;-66
2022/07/27 07:23:08;;;;;;;3.45;1.67;;;;;;;28.18;93.97;99074.22;1776515;80;20996;-66
2022/07/27 07:25:35;;;;;;;6.60;2.17;;;;;;;28.26;95.56;99076.22;1775872;80;21028;-65
2022/07/27 07:28:07;;;;;;;3.95;2.00;;;;;;;28.29;96.79;99075.92;1782093;80;21087;-66
2022/07/27 07:30:32;;;;;;;3.20;2.35;;;;;;;28.39;95.61;99067.73;1778130;80;21043;-66
2022/07/27 07:32:59;;;;;;;3.55;2.02;;;;;;;28.51;92.58;99068.16;1773269;80;21186;-66
2022/07/27 07:35:26;;;;;;;3.50;1.87;;;;;;;28.55;93.17;99069.64;1770518;80;21074;-66
2022/07/27 07:37:52;;;;;;;4.72;1.67;;;;;;;28.60;92.48;99067.47;1783196;80;21047;-65
2022/07/27 07:40:19;;;;;;;2.15;1.65;;;;;;;28.70;90.99;99066.94;1786644;79;20972;-66
2022/07/27 07:42:59;;;;;;;3.15;1.70;;;;;;;28.74;90.22;99069.84;1790743;79;21102;-65
2022/07/27 07:45:27;;;;;;;3.40;1.95;;;;;;;28.78;88.72;99066.23;1779317;80;21978;-65
2022/07/27 07:47:54;;;;;;;5.80;2.10;;;;;;;28.78;88.09;99070.48;1782436;80;21000;-65
2022/07/27 07:50:21;;;;;;;3.90;1.80;;;;;;;28.80;87.61;99069.41;1787744;80;21531;-66
2022/07/27 07:52:50;;;;;;;3.10;1.85;;;;;;;28.84;90.19;99072.13;1791562;80;20845;-65
2022/07/27 07:55:21;;;;;;;9.80;1.70;;;;;;;28.93;91.49;99068.59;1789994;80;21054;-66
2022/07/27 07:57:48;;;;;;;2.15;1.75;;;;;;;29.00;87.93;99061.27;1791089;80;21159;-65
2022/07/27 08:00:16;;;;;;;4.37;2.00;;;;;;;29.08;88.87;99067.48;1791239;80;20981;-65
2022/07/27 08:02:45;;;;;;;5.20;2.05;;;;;;;29.15;87.90;99065.81;1790817;80;21041;-66
2022/07/27 08:05:12;;;;;;;7.10;2.30;;;;;;;29.26;86.70;99074.53;1790482;80;21004;-65
2022/07/27 08:07:40;;;;;;;3.27;2.00;;;;;;;29.38;85.09;99068.63;1766276;81;21070;-67
2022/07/27 08:10:08;;;;;;;7.72;1.80;;;;;;;29.40;85.40;99071.19;1769832;81;22010;-66
2022/07/27 08:12:37;;;;;;;2.50;1.80;;;;;;;29.52;86.99;99077.25;1769789;81;20987;-67
2022/07/27 08:15:05;;;;;;;23.92;2.35;;;;;;;29.62;86.22;99074.66;1749492;80;21523;-66
2022/07/27 08:17:33;;;;;;;4.12;2.02;;;;;;;29.72;87.75;99071.90;1717673;82;21039;-66
2022/07/27 08:20:02;;;;;;;4.65;2.00;;;;;;;29.83;86.68;99072.27;1713719;83;21034;-67
2022/07/27 08:22:29;;;;;;;4.45;2.20;;;;;;;29.93;84.63;99071.68;1712147;81;21567;-65
2022/07/27 08:24:55;;;;;;;3.12;1.82;;;;;;;30.01;85.03;99071.56;1758742;80;21000;-65
2022/07/27 08:27:23;;;;;;;4.37;1.85;;;;;;;29.98;82.88;99067.44;1749526;81;21054;-65
2022/07/27 08:29:49;;;;;;;3.33;1.95;;;;;;;30.04;81.43;99069.84;1746420;81;21003;-66
2022/07/27 08:32:16;;;;;;;5.22;2.30;;;;;;;30.04;82.61;99069.05;1749567;81;21011;-65
2022/07/27 08:34:43;;;;;;;2.45;1.72;;;;;;;29.97;84.43;99069.50;1753955;81;21220;-67
2022/07/27 08:37:10;;;;;;;2.17;1.67;;;;;;;29.98;84.12;99071.70;1753808;81;21071;-66
2022/07/27 08:39:36;;;;;;;6.42;1.60;;;;;;;30.00;84.32;99072.83;1754395;81;21083;-65
2022/07/27 08:42:03;;;;;;;1.60;1.50;;;;;;;30.04;83.19;99074.11;1753090;81;20961;-65
2022/07/27 08:44:30;;;;;;;2.02;1.82;;;;;;;29.98;82.05;99071.08;1728390;81;20991;-65
2022/07/27 08:46:57;;;;;;;3.67;1.70;;;;;;;29.89;82.90;99071.81;1761053;80;22134;-65
2022/07/27 08:49:24;;;;;;;4.00;1.70;;;;;;;29.90;83.43;99071.20;1757420;80;20985;-65
2022/07/27 08:51:50;;;;;;;3.15;2.00;;;;;;;29.88;83.84;99070.25;1750495;81;21088;-65
2022/07/27 08:54:17;;;;;;;4.10;1.98;;;;;;;29.89;84.99;99063.92;1746072;81;21009;-65
2022/07/27 08:56:43;;;;;;;3.90;2.00;;;;;;;29.87;86.72;99067.23;1743456;81;20999;-65
2022/07/27 08:59:10;;;;;;;6.70;1.85;;;;;;;29.89;83.71;99063.92;1765196;79;21160;-65
2022/07/27 09:01:36;;;;;;;2.42;1.62;;;;;;;29.82;84.42;99070.67;1785411;79;21046;-66
2022/07/27 09:04:03;;;;;;;3.30;1.67;;;;;;;29.83;85.36;99068.01;1779788;79;21019;-66
2022/07/27 09:06:48;;;;;;;4.53;1.60;;;;;;;29.88;86.06;99066.61;1775616;80;21118;-66
2022/07/27 09:09:18;;;;;;;3.05;1.57;;;;;;;29.87;87.55;99065.03;1772441;80;21530;-66
2022/07/27 09:12:05;;;;;;;3.50;1.90;;;;;;;30.10;83.11;99062.30;1783359;79;21531;-66
2022/07/27 09:14:33;;;;;;;4.28;1.60;;;;;;;30.20;83.66;99068.80;1769796;80;21053;-65
2022/07/27 09:17:24;;;;;;;2.80;1.70;;;;;;;30.27;85.19;99066.94;1784105;79;21300;-65
2022/07/27 09:19:57;;;;;;;6.87;1.50;;;;;;;30.35;80.92;99064.77;1777295;80;20966;-64
2022/07/27 09:22:53;;;;;;;4.53;1.77;;;;;;;30.43;81.42;99063.05;1783865;80;21005;-65
2022/07/27 09:25:26;;;;;;;2.70;1.72;;;;;;;30.51;81.20;99062.12;1765350;80;21225;-65
2022/07/27 09:27:55;;;;;;;2.85;1.80;;;;;;;30.55;76.10;99069.88;1775006;80;21048;-65
2022/07/27 09:30:22;;;;;;;2.52;1.50;;;;;;;30.30;77.89;99061.12;1774883;80;21500;-65
2022/07/27 09:33:04;;;;;;;3.20;1.65;;;;;;;30.36;80.30;99066.98;1775105;80;21064;-65
2022/07/27 09:35:34;;;;;;;3.58;1.60;;;;;;;30.40;79.53;99058.31;1775353;80;21013;-64
2022/07/27 09:38:22;;;;;;;6.00;1.40;;;;;;;30.54;78.98;99067.66;1772452;80;21787;-65
2022/07/27 09:40:59;;;;;;;3.05;1.60;;;;;;;30.56;78.31;99066.56;1765299;80;21580;-65
2022/07/27 09:43:28;;;;;;;1.67;1.27;;;;;;;30.63;80.04;99063.25;1777140;80;21525;-66
2022/07/27 09:45:54;;;;;;;1.92;1.62;;;;;;;30.69;77.54;99070.67;1777113;80;21080;-66
2022/07/27 09:48:22;;;;;;;5.42;1.57;;;;;;;30.74;75.69;99070.05;1776847;80;21035;-66
2022/07/27 09:51:01;;;;;;;1.60;1.50;;;;;;;30.82;77.53;99070.58;1778620;80;21145;-65
2022/07/27 09:53:33;;;;;;;4.42;1.60;;;;;;;30.92;77.27;99066.31;1774613;79;21000;-65
2022/07/27 09:56:04;;;;;;;2.17;1.52;;;;;;;31.03;75.52;99069.47;1777247;79;20989;-66
2022/07/27 09:58:50;;;;;;;4.05;1.57;;;;;;;31.08;76.25;99070.26;1774542;80;20976;-66
2022/07/27 10:01:23;;;;;;;1.65;1.40;;;;;;;31.00;76.28;99070.42;1773481;80;21054;-65
2022/07/27 10:03:53;;;;;;;3.05;1.40;;;;;;;31.02;77.36;99066.48;1777625;80;21792;-65
2022/07/27 10:06:21;;;;;;;3.52;1.50;;;;;;;31.19;75.77;99067.58;1776388;80;20993;-65
2022/07/27 10:08:49;;;;;;;2.67;1.35;;;;;;;31.27;73.88;99068.83;1746006;80;21032;-65
2022/07/27 10:11:17;;;;;;;7.78;2.45;;;;;;;31.37;74.62;99065.36;1774185;80;21051;-66
2022/07/27 10:43:16;;;;;;;6.92;1.80;;;;;;;31.78;69.49;99072.23;1817352;77;22015;-70
2022/07/27 10:45:46;;;;;;;3.05;1.30;;;;;;;32.04;66.64;99076.14;1782356;79;21063;-72
2022/07/27 10:48:38;;;;;;;4.33;1.10;;;;;;;31.99;66.69;99075.37;1780012;79;21176;-71
2022/07/27 10:51:14;;;;;;;18.15;4.67;;;;;;;31.74;65.43;99072.26;1789864;78;20982;-77
2022/07/27 10:53:46;;;;;;;13.13;5.20;;;;;;;31.57;66.06;99077.69;1789266;79;20981;-75
2022/07/27 10:56:15;;;;;;;9.68;6.25;;;;;;;31.37;66.33;99077.37;1775517;80;21010;-69
2022/07/27 10:58:46;;;;;;;11.12;5.70;;;;;;;31.16;68.67;99083.55;1760727;78;21068;-75
2022/07/27 11:01:18;;;;;;;10.32;2.10;;;;;;;31.02;69.22;99084.95;1795516;78;21039;-67
2022/07/27 11:03:51;;;;;;;9.10;3.45;;;;;;;31.12;67.99;99087.17;1776017;79;20951;-68
2022/07/27 11:06:24;;;;;;;8.70;3.77;;;;;;;30.89;69.32;99087.96;1795852;78;20978;-69
2022/07/27 11:08:58;;;;;;;3.00;1.80;;;;;;;30.75;70.54;99092.17;1806179;78;20959;-66
2022/07/27 11:11:33;;;;;;;6.78;1.42;;;;;;;30.69;72.26;99092.64;1801144;78;20972;-67
2022/07/27 11:14:00;;;;;;;7.05;3.85;;;;;;;30.73;72.81;99095.48;1771257;78;21077;-75
2022/07/27 11:16:34;;;;;;;6.00;2.62;;;;;;;30.83;70.01;99092.67;1795000;78;21034;-73
2022/07/27 11:19:05;;;;;;;5.92;1.70;;;;;;;30.71;70.39;99092.31;1797832;78;21126;-69
2022/07/27 11:21:38;;;;;;;3.45;1.35;;;;;;;30.73;70.10;99093.27;1806942;78;22387;-70
2022/07/27 11:24:13;;;;;;;5.30;1.37;;;;;;;30.65;72.26;99084.88;1799229;78;21031;-68
2022/07/27 11:26:49;;;;;;;8.85;1.55;;;;;;;30.39;71.14;99090.80;1802886;78;21264;-69
2022/07/27 11:29:18;;;;;;;2.47;1.30;;;;;;;30.18;73.65;99087.57;1777616;78;21006;-69
2022/07/27 11:31:49;;;;;;;1.82;1.25;;;;;;;30.15;74.91;99092.12;1787828;79;21547;-67
2022/07/27 11:34:26;;;;;;;4.90;1.17;;;;;;;30.16;75.46;99087.23;1740580;81;21455;-69
2022/07/27 11:36:53;;;;;;;12.47;1.87;;;;;;;29.99;77.62;99100.27;1760781;81;21526;-70
2022/07/27 11:39:31;;;;;;;4.40;1.42;;;;;;;29.96;79.13;99102.59;1793073;79;21128;-71
2022/07/27 11:42:02;;;;;;;6.67;1.75;;;;;;;29.91;81.42;99103.99;1770938;79;20990;-71
2022/07/27 11:44:33;;;;;;;6.05;1.75;;;;;;;29.81;86.55;99105.99;1738196;81;20915;-69
2022/07/27 11:47:01;;;;;;;6.58;1.90;;;;;;;29.67;85.62;99106.55;1752504;81;21003;-69
2022/07/27 11:49:35;;;;;;;5.53;1.32;;;;;;;29.50;87.70;99110.34;1738220;81;20999;-67
2022/07/27 11:52:06;;;;;;;5.60;1.62;;;;;;;29.35;88.24;99107.23;1763597;81;21760;-76
2022/07/27 11:54:41;;;;;;;6.22;2.08;;;;;;;29.20;89.57;99108.38;1782272;80;20893;-66
2022/07/27 11:57:17;;;;;;;8.50;1.70;;;;;;;29.10;92.87;99108.93;1736328;80;21008;-73
2022/07/27 11:59:46;;;;;;;6.22;2.22;;;;;;;29.08;93.44;99104.95;1781609;80;20886;-67
2022/07/27 12:02:20;;;;;;;6.47;2.17;;;;;;;29.01;95.52;99111.67;1762331;79;21067;-73
2022/07/27 12:04:50;;;;;;;4.72;2.15;;;;;;;29.01;97.96;99109.63;1763940;79;21272;-69
2022/07/27 12:07:37;;;;;;;13.20;2.90;;;;;;;29.04;98.86;99109.33;1760961;81;21563;-68
2022/07/27 12:10:13;;;;;;;5.87;2.17;;;;;;;29.03;99.67;99106.34;1728870;81;20859;-74
2022/07/27 12:12:52;;;;;;;7.80;2.37;;;;;;;28.97;100.00;99108.16;1756191;81;21389;-68
2022/07/27 12:15:26;;;;;;;5.80;1.98;;;;;;;28.94;100.00;99104.79;1735175;81;20995;-67